Time;durP1;ratioP1;P1;durP2;ratioP2;P2;SDS_P1;SDS_P2;PMS_P1;PMS_P2;Temp;Humidity;BMP_temperature;BMP_pressure;BME280_temperature;BME280_humidity;BME280_pressure;Samples;Min_cycle;Max_cycle;Signal;HPM_P1;HPM_P2
2024/04/04 00:01:36;;;;;;;3.00;1.60;;;;;;;12.15;77.11;98813.63;104263;1269;60854;-61
2024/04/04 00:04:04;;;;;;;2.20;1.50;;;;;;;12.21;76.21;98818.13;104688;1269;59538;-61
2024/04/04 00:06:30;;;;;;;2.50;1.40;;;;;;;12.09;76.29;98822.42;104892;1263;74473;-60
2024/04/04 00:08:57;;;;;;;3.10;1.50;;;;;;;12.05;76.48;98833.73;104165;1265;69825;-61
2024/04/04 00:11:24;;;;;;;1.70;1.60;;;;;;;12.12;76.42;98836.80;104736;1262;72711;-62
2024/04/04 00:13:51;;;;;;;4.50;1.40;;;;;;;12.08;76.82;98837.92;104194;1266;60764;-60
2024/04/04 00:16:18;;;;;;;1.40;1.20;;;;;;;12.01;77.38;98839.25;104513;1269;60576;-60
2024/04/04 00:18:46;;;;;;;3.00;1.60;;;;;;;12.02;77.04;98839.88;104286;1268;74523;-60
2024/04/04 00:21:13;;;;;;;3.10;1.20;;;;;;;12.01;77.53;98837.10;104261;1266;70227;-60
2024/04/04 00:23:40;;;;;;;2.70;1.60;;;;;;;12.04;77.35;98839.61;104303;1263;73241;-60
2024/04/04 00:26:07;;;;;;;2.00;1.40;;;;;;;11.89;78.23;98828.00;104168;1272;61162;-60
2024/04/04 00:28:38;;;;;;;1.90;1.20;;;;;;;11.91;79.50;98843.54;104467;1268;60543;-60
2024/04/04 00:31:05;;;;;;;5.30;1.50;;;;;;;11.93;79.63;98846.77;104252;1263;74815;-60
2024/04/04 00:33:32;;;;;;;4.50;1.60;;;;;;;12.00;80.17;98842.64;104193;1266;70094;-59
2024/04/04 00:35:59;;;;;;;1.70;1.20;;;;;;;11.99;80.66;98842.89;104195;1263;73260;-62
2024/04/04 00:38:25;;;;;;;3.60;1.20;;;;;;;11.95;81.79;98841.71;104331;1263;60562;-60
2024/04/04 00:40:52;;;;;;;2.00;1.10;;;;;;;12.01;81.99;98841.88;104730;1264;60724;-60
2024/04/04 00:43:19;;;;;;;2.90;1.50;;;;;;;12.03;81.16;98843.33;104529;1265;73769;-59
2024/04/04 00:45:46;;;;;;;2.00;1.10;;;;;;;11.92;83.20;98843.84;104546;1267;68469;-60
2024/04/04 00:48:13;;;;;;;2.40;1.60;;;;;;;11.96;84.12;98841.84;104257;1269;71597;-59
2024/04/04 00:50:40;;;;;;;4.60;1.40;;;;;;;11.91;84.68;98830.73;104253;1263;60479;-59
2024/04/04 00:53:08;;;;;;;3.80;1.70;;;;;;;11.96;84.60;98839.19;104363;1266;60709;-60
2024/04/04 00:55:34;;;;;;;2.70;1.50;;;;;;;11.95;85.02;98838.02;104374;1265;73609;-60
2024/04/04 00:58:01;;;;;;;5.10;1.50;;;;;;;11.95;85.67;98831.36;104342;1264;69468;-60
2024/04/04 01:00:29;;;;;;;4.40;1.50;;;;;;;11.99;86.01;98830.39;104308;1263;73144;-60
2024/04/04 01:02:56;;;;;;;2.20;1.40;;;;;;;12.12;85.68;98826.46;104387;1262;60675;-60
2024/04/04 01:05:23;;;;;;;1.30;1.10;;;;;;;12.11;85.83;98830.35;104728;1265;60659;-61
2024/04/04 01:07:50;;;;;;;4.10;1.30;;;;;;;12.05;87.05;98834.21;104596;1265;74107;-60
2024/04/04 01:10:19;;;;;;;2.50;1.50;;;;;;;12.05;87.60;98833.05;104241;1267;69644;-60
2024/04/04 01:12:46;;;;;;;1.80;1.20;;;;;;;12.03;88.58;98835.80;104008;1263;73184;-60
2024/04/04 01:15:13;;;;;;;1.50;1.00;;;;;;;11.89;90.50;98836.08;104866;1262;60540;-61
2024/04/04 01:17:40;;;;;;;3.70;1.60;;;;;;;11.70;93.39;98836.86;104671;1262;60464;-61
2024/04/04 01:20:07;;;;;;;2.40;1.20;;;;;;;11.63;95.18;98836.02;104540;1265;73572;-60
2024/04/04 01:22:34;;;;;;;2.90;1.30;;;;;;;11.58;96.73;98838.27;104510;1261;70069;-60
2024/04/04 01:25:01;;;;;;;3.40;1.20;;;;;;;11.54;98.07;98837.27;104030;1272;72396;-60
2024/04/04 01:27:28;;;;;;;3.20;1.70;;;;;;;11.56;98.25;98841.38;103958;1266;62178;-61
2024/04/04 01:29:55;;;;;;;3.10;1.40;;;;;;;11.55;99.29;98841.45;104266;1265;60569;-61
2024/04/04 01:32:22;;;;;;;3.10;1.60;;;;;;;11.44;99.97;98847.85;104308;1265;74479;-61
2024/04/04 01:34:48;;;;;;;2.30;1.50;;;;;;;11.41;100.00;98842.66;104412;1265;69832;-60
2024/04/04 01:37:15;;;;;;;2.20;1.60;;;;;;;11.41;100.00;98847.70;104732;1263;72422;-61
2024/04/04 01:39:42;;;;;;;3.50;1.40;;;;;;;11.31;100.00;98850.06;104692;1265;61582;-61
2024/04/04 01:42:08;;;;;;;1.60;1.50;;;;;;;11.36;100.00;98854.20;104745;1265;60581;-60
2024/04/04 01:44:35;;;;;;;4.00;2.00;;;;;;;11.34;100.00;98856.58;104408;1264;74777;-61
2024/04/04 01:47:02;;;;;;;6.10;1.70;;;;;;;11.32;100.00;98856.67;104178;1266;69230;-60
2024/04/04 01:49:29;;;;;;;4.30;1.60;;;;;;;11.26;100.00;98857.35;104453;1261;72441;-61
2024/04/04 01:51:56;;;;;;;2.30;1.50;;;;;;;11.23;100.00;98862.45;104844;1257;61388;-60
2024/04/04 01:54:23;;;;;;;3.90;1.50;;;;;;;11.21;100.00;98858.02;104850;1260;60177;-61
2024/04/04 01:56:50;;;;;;;2.20;1.40;;;;;;;11.25;100.00;98859.89;105180;1252;73181;-60
2024/04/04 01:59:17;;;;;;;2.00;1.30;;;;;;;11.27;100.00;98863.81;105075;1254;69347;-60
2024/04/04 02:01:44;;;;;;;3.10;1.40;;;;;;;11.20;100.00;98867.67;104799;1259;72266;-60
2024/04/04 02:04:10;;;;;;;2.80;1.60;;;;;;;11.14;100.00;98871.92;104664;1268;61564;-61
2024/04/04 02:06:37;;;;;;;1.60;1.40;;;;;;;11.04;100.00;98869.50;104970;1257;60489;-61
2024/04/04 02:09:04;;;;;;;1.60;1.40;;;;;;;11.00;100.00;98868.53;104769;1256;74037;-65
2024/04/04 02:11:31;;;;;;;2.90;1.90;;;;;;;10.99;100.00;98870.85;105227;1256;69417;-61
2024/04/04 02:13:58;;;;;;;1.70;1.20;;;;;;;10.89;100.00;98872.42;104838;1254;73452;-56
2024/04/04 02:16:25;;;;;;;3.10;1.80;;;;;;;10.96;100.00;98870.66;104822;1258;61522;-59
2024/04/04 02:18:52;;;;;;;2.50;1.80;;;;;;;10.87;100.00;98873.25;104965;1257;61036;-56
2024/04/04 02:21:19;;;;;;;4.50;1.20;;;;;;;10.91;100.00;98874.27;104914;1257;72519;-62
2024/04/04 02:23:45;;;;;;;2.00;1.20;;;;;;;10.93;100.00;98875.02;104756;1257;69242;-61
2024/04/04 02:26:13;;;;;;;2.80;1.10;;;;;;;10.98;100.00;98881.08;104726;1256;72784;-60
2024/04/04 02:28:40;;;;;;;2.10;1.20;;;;;;;10.94;100.00;98890.10;104549;1256;61519;-62
2024/04/04 02:31:06;;;;;;;3.60;1.70;;;;;;;10.89;100.00;98902.94;104540;1257;60445;-61
2024/04/04 02:33:33;;;;;;;1.80;1.50;;;;;;;10.83;100.00;98906.30;104539;1272;72299;-61
2024/04/04 02:36:00;;;;;;;3.10;1.40;;;;;;;10.86;100.00;98906.66;104675;1254;69207;-61
2024/04/04 02:38:26;;;;;;;1.90;1.30;;;;;;;10.80;100.00;98917.14;104642;1256;72986;-62
2024/04/04 02:40:53;;;;;;;1.90;1.60;;;;;;;10.73;100.00;98918.73;104738;1261;61618;-62
2024/04/04 02:43:20;;;;;;;2.80;1.50;;;;;;;10.68;100.00;98921.80;104369;1264;60115;-61
2024/04/04 02:45:47;;;;;;;1.40;1.20;;;;;;;10.62;100.00;98930.92;104382;1264;73461;-62
2024/04/04 02:48:14;;;;;;;4.30;1.60;;;;;;;10.54;100.00;98934.52;104467;1257;70342;-61
2024/04/04 02:50:41;;;;;;;3.70;1.40;;;;;;;10.46;100.00;98940.89;104649;1257;72864;-62
2024/04/04 02:53:08;;;;;;;1.30;1.20;;;;;;;10.39;100.00;98939.33;104418;1256;60953;-62
2024/04/04 02:55:35;;;;;;;1.80;1.60;;;;;;;10.33;100.00;98937.02;104771;1256;60560;-61
2024/04/04 02:58:02;;;;;;;1.60;1.50;;;;;;;10.26;100.00;98941.70;104826;1255;74005;-61
2024/04/04 03:00:29;;;;;;;2.80;1.40;;;;;;;10.21;100.00;98938.31;104394;1258;68932;-61
2024/04/04 03:02:56;;;;;;;3.20;1.30;;;;;;;10.17;100.00;98940.63;104999;1254;71143;-60
2024/04/04 03:05:23;;;;;;;2.50;1.30;;;;;;;10.10;100.00;98938.71;104373;1272;60951;-61
2024/04/04 03:07:50;;;;;;;2.70;1.30;;;;;;;10.03;100.00;98942.05;104788;1257;60624;-60
2024/04/04 03:10:17;;;;;;;1.20;1.10;;;;;;;10.03;100.00;98946.23;104451;1255;74237;-61
2024/04/04 03:12:43;;;;;;;1.30;1.00;;;;;;;10.04;100.00;98945.68;104729;1260;69340;-60
2024/04/04 03:15:10;;;;;;;1.00;1.00;;;;;;;9.93;100.00;98932.94;104696;1258;71206;-60
2024/04/04 03:17:37;;;;;;;1.30;1.00;;;;;;;9.99;100.00;98952.77;104352;1267;61866;-61
2024/04/04 03:20:05;;;;;;;1.40;1.10;;;;;;;9.96;100.00;98964.48;105124;1253;60558;-60
2024/04/04 03:22:32;;;;;;;1.30;1.10;;;;;;;9.93;100.00;98968.47;104874;1255;74181;-61
2024/04/04 03:24:59;;;;;;;1.80;1.30;;;;;;;9.91;100.00;98973.98;104319;1259;69345;-61
2024/04/04 03:27:26;;;;;;;1.40;1.10;;;;;;;9.89;100.00;98974.64;104965;1255;72143;-61
2024/04/04 03:29:53;;;;;;;1.10;1.10;;;;;;;9.86;100.00;98982.10;106791;1251;60584;-61
2024/04/04 03:32:20;;;;;;;1.10;0.90;;;;;;;9.88;100.00;98982.23;106603;1251;60527;-61
2024/04/04 03:34:48;;;;;;;1.50;1.40;;;;;;;9.81;100.00;98984.15;106735;1254;75313;-61
2024/04/04 03:37:15;;;;;;;2.60;1.30;;;;;;;9.68;100.00;98978.45;106547;1254;69443;-60
2024/04/04 03:39:41;;;;;;;1.50;1.40;;;;;;;9.71;100.00;98993.39;106769;1252;60607;-58
2024/04/04 03:42:08;;;;;;;1.80;1.30;;;;;;;9.69;100.00;98994.33;106582;1253;61047;-60
2024/04/04 03:44:35;;;;;;;1.40;1.30;;;;;;;9.67;100.00;98998.80;106984;1253;61057;-58
2024/04/04 03:47:02;;;;;;;2.20;1.10;;;;;;;9.46;100.00;98981.50;106899;1253;72932;-60
2024/04/04 03:49:30;;;;;;;1.10;1.10;;;;;;;9.47;100.00;98993.83;106806;1255;69107;-56
2024/04/04 03:51:57;;;;;;;1.10;1.00;;;;;;;9.52;100.00;99005.16;106913;1252;72477;-55
2024/04/04 03:54:25;;;;;;;2.00;1.20;;;;;;;9.52;100.00;99009.54;107165;1252;61238;-56
2024/04/04 03:56:52;;;;;;;1.20;1.10;;;;;;;9.50;100.00;99015.58;106747;1253;61132;-54
2024/04/04 03:59:32;;;;;;;0.80;0.70;;;;;;;9.47;100.00;99016.56;107057;1252;74534;-55
2024/04/04 04:02:00;;;;;;;3.40;1.10;;;;;;;9.48;100.00;99022.67;106656;1255;68734;-54
2024/04/04 04:04:26;;;;;;;1.10;1.00;;;;;;;9.40;100.00;99022.18;107060;1254;71877;-54
2024/04/04 04:06:53;;;;;;;1.60;0.90;;;;;;;9.33;100.00;99024.76;106850;1251;61369;-54
2024/04/04 04:09:20;;;;;;;0.90;0.70;;;;;;;9.25;100.00;99037.23;106909;1254;61275;-54
2024/04/04 04:11:47;;;;;;;0.90;0.80;;;;;;;9.20;100.00;99039.55;106487;1251;73478;-54
2024/04/04 04:14:15;;;;;;;0.80;0.80;;;;;;;9.14;100.00;99046.31;107185;1254;68149;-56
2024/04/04 04:16:43;;;;;;;1.10;1.00;;;;;;;9.15;100.00;99054.84;107720;1254;72887;-55
2024/04/04 04:19:11;;;;;;;0.90;0.90;;;;;;;9.10;100.00;99057.86;107021;1254;61305;-54
2024/04/04 04:21:39;;;;;;;0.80;0.80;;;;;;;9.03;100.00;99051.89;107420;1251;60374;-55
2024/04/04 04:24:06;;;;;;;0.70;0.70;;;;;;;9.05;99.39;99062.81;107319;1254;74669;-55
2024/04/04 04:26:34;;;;;;;0.80;0.80;;;;;;;8.97;95.25;99066.29;107691;1254;69749;-54
2024/04/04 04:29:02;;;;;;;0.70;0.70;;;;;;;8.89;89.59;99070.01;107252;1254;71539;-55
2024/04/04 04:31:30;;;;;;;0.70;0.50;;;;;;;8.84;88.63;99076.30;107411;1252;60672;-56
2024/04/04 04:33:58;;;;;;;0.70;0.70;;;;;;;8.80;85.76;99078.09;107832;1251;61267;-56
2024/04/04 04:36:26;;;;;;;0.70;0.60;;;;;;;8.74;84.86;99080.61;107725;1251;74926;-55
2024/04/04 04:38:54;;;;;;;0.60;0.60;;;;;;;8.71;84.91;99081.27;107384;1254;68910;-56
2024/04/04 04:41:22;;;;;;;1.40;0.60;;;;;;;8.65;84.92;99087.84;107310;1251;73614;-56
2024/04/04 04:43:50;;;;;;;1.30;0.50;;;;;;;8.63;87.34;99095.59;107480;1253;60877;-56
2024/04/04 04:46:17;;;;;;;0.80;0.80;;;;;;;8.62;88.27;99099.19;107743;1251;60513;-56
2024/04/04 04:48:45;;;;;;;1.00;0.70;;;;;;;8.32;84.46;99062.50;107016;1254;74872;-57
2024/04/04 04:51:13;;;;;;;0.70;0.70;;;;;;;8.44;80.11;99104.27;106976;1253;68427;-56
2024/04/04 04:53:40;;;;;;;0.60;0.60;;;;;;;8.40;79.90;99108.80;107299;1254;72727;-55
2024/04/04 04:56:08;;;;;;;0.80;0.70;;;;;;;8.35;80.17;99110.53;107690;1251;61203;-55
2024/04/04 04:58:36;;;;;;;0.50;0.50;;;;;;;8.38;81.04;99114.27;107278;1250;61282;-55
2024/04/04 05:01:04;;;;;;;;;;;;;;;8.39;80.30;99116.52;107470;1252;74312;-55
2024/04/04 05:03:31;;;;;;;;;;;;;;;8.44;81.24;99113.18;107886;1254;68462;-55
2024/04/04 05:05:59;;;;;;;0.50;0.40;;;;;;;8.44;81.38;99117.55;107746;1251;73512;-55
2024/04/04 05:08:27;;;;;;;0.90;0.80;;;;;;;8.49;81.01;99118.02;107732;1252;61344;-55
2024/04/04 05:10:55;;;;;;;0.90;0.70;;;;;;;8.56;80.07;99119.48;107652;1251;61108;-55
2024/04/04 05:13:23;;;;;;;0.70;0.50;;;;;;;8.57;77.74;99117.33;107591;1252;74981;-55
2024/04/04 05:15:54;;;;;;;0.60;0.60;;;;;;;8.58;78.15;99121.02;107386;1252;70161;-55
2024/04/04 05:18:22;;;;;;;1.10;0.60;;;;;;;8.59;78.01;99119.54;107861;1251;72733;-54
2024/04/04 05:21:00;;;;;;;0.70;0.70;;;;;;;8.60;78.84;99118.44;107796;1252;61265;-54
2024/04/04 05:23:30;;;;;;;0.90;0.60;;;;;;;8.64;79.18;99123.04;107845;1253;61353;-55
2024/04/04 05:25:57;;;;;;;1.00;0.70;;;;;;;8.68;81.16;99126.48;107808;1252;74363;-55
2024/04/04 05:28:29;;;;;;;0.50;0.50;;;;;;;8.77;80.44;99122.44;107426;1252;69406;-55
2024/04/04 05:30:57;;;;;;;0.60;0.60;;;;;;;8.78;79.18;99128.83;108045;1253;73052;-55
2024/04/04 05:33:24;;;;;;;;;;;;;;;8.80;78.54;99129.81;107283;1253;59464;-56
2024/04/04 05:35:55;;;;;;;0.70;0.60;;;;;;;8.79;78.11;99131.94;108015;1252;61024;-55
2024/04/04 05:38:23;;;;;;;1.40;0.70;;;;;;;8.72;79.25;99141.00;107554;1253;74548;-55
2024/04/04 05:40:50;;;;;;;0.60;0.60;;;;;;;8.78;78.54;99148.05;107961;1252;69639;-56
2024/04/04 05:43:16;;;;;;;0.70;0.70;;;;;;;8.76;77.90;99155.30;107956;1252;72315;-55
2024/04/04 05:45:44;;;;;;;1.00;0.80;;;;;;;8.75;78.61;99156.75;107441;1253;59764;-55
2024/04/04 05:48:11;;;;;;;1.00;0.80;;;;;;;8.73;78.82;99163.85;107779;1252;60193;-57
2024/04/04 05:50:39;;;;;;;0.80;0.80;;;;;;;8.78;76.86;99164.49;107463;1251;76840;-55
2024/04/04 05:53:07;;;;;;;1.00;0.70;;;;;;;8.75;77.71;99173.52;107937;1251;69220;-55
2024/04/04 05:55:35;;;;;;;4.60;0.50;;;;;;;8.76;79.69;99176.10;107758;1253;71571;-55
2024/04/04 05:58:02;;;;;;;0.60;0.60;;;;;;;8.92;79.64;99174.03;107601;1250;59626;-55
2024/04/04 06:00:29;;;;;;;;;;;;;;;8.97;77.57;99181.13;107570;1254;59759;-55
2024/04/04 06:02:56;;;;;;;1.40;0.80;;;;;;;9.08;76.35;99185.60;107401;1253;76146;-56
2024/04/04 06:05:23;;;;;;;0.80;0.80;;;;;;;8.94;74.96;99172.92;107104;1256;70329;-55
2024/04/04 06:07:50;;;;;;;1.00;0.60;;;;;;;9.06;74.16;99185.87;107571;1254;72384;-55
2024/04/04 06:10:18;;;;;;;;;;;;;;;9.06;75.11;99186.54;107419;1255;59575;-55
2024/04/04 06:12:46;;;;;;;1.10;0.90;;;;;;;9.24;76.77;99180.48;107863;1252;60314;-56
2024/04/04 06:15:13;;;;;;;1.80;0.90;;;;;;;9.34;74.50;99180.23;107709;1253;76007;-55
2024/04/04 06:17:41;;;;;;;1.30;0.70;;;;;;;9.49;74.34;99184.46;107743;1255;70780;-55
2024/04/04 06:20:09;;;;;;;2.90;1.60;;;;;;;9.59;72.71;99187.32;107367;1255;72563;-55
2024/04/04 06:22:37;;;;;;;1.10;1.00;;;;;;;9.65;70.37;99188.80;107315;1253;61290;-56
2024/04/04 06:25:05;;;;;;;1.30;0.90;;;;;;;9.57;69.27;99188.45;107411;1253;60348;-56
2024/04/04 06:27:32;;;;;;;0.90;0.80;;;;;;;9.34;69.04;99195.27;107987;1253;74444;-55
2024/04/04 06:30:00;;;;;;;;;;;;;;;9.27;70.01;99202.77;107445;1254;69853;-55
2024/04/04 06:32:28;;;;;;;1.20;1.00;;;;;;;9.29;71.12;99205.61;107358;1254;72550;-54
2024/04/04 06:34:55;;;;;;;0.90;0.80;;;;;;;9.23;71.23;99208.19;107625;1253;61290;-55
2024/04/04 06:37:23;;;;;;;0.70;0.70;;;;;;;9.36;71.43;99214.27;107689;1255;61161;-54
2024/04/04 06:39:50;;;;;;;2.10;0.80;;;;;;;9.40;71.71;99220.88;107423;1255;74612;-54
2024/04/04 06:42:17;;;;;;;1.10;1.00;;;;;;;9.45;70.32;99225.92;107282;1254;69731;-55
2024/04/04 06:44:45;;;;;;;1.10;1.00;;;;;;;9.34;70.34;99229.34;107543;1253;73319;-54
2024/04/04 06:47:12;;;;;;;1.20;0.90;;;;;;;9.28;69.87;99227.02;107571;1254;60634;-55
2024/04/04 06:49:39;;;;;;;1.40;0.80;;;;;;;9.26;70.66;99229.20;107365;1254;59334;-55
2024/04/04 06:52:07;;;;;;;0.70;0.70;;;;;;;9.25;72.21;99230.44;107741;1255;75076;-54
2024/04/04 06:54:36;;;;;;;1.00;0.90;;;;;;;9.24;70.96;99239.95;107346;1254;68357;-55
2024/04/04 06:57:03;;;;;;;1.60;0.80;;;;;;;9.24;70.92;99241.90;107520;1253;72549;-55
2024/04/04 06:59:30;;;;;;;2.00;1.00;;;;;;;9.22;71.24;99245.11;107894;1253;61103;-55
2024/04/04 07:01:58;;;;;;;2.40;0.60;;;;;;;9.24;71.62;99248.36;107440;1254;60565;-55
2024/04/04 07:04:28;;;;;;;1.00;0.80;;;;;;;9.19;70.18;99250.65;107425;1253;74943;-55
2024/04/04 07:06:56;;;;;;;1.80;0.80;;;;;;;9.18;70.92;99254.21;107345;1253;69541;-55
2024/04/04 07:09:24;;;;;;;0.80;0.80;;;;;;;8.93;70.63;99231.33;107621;1253;72267;-55
2024/04/04 07:11:51;;;;;;;1.90;1.00;;;;;;;9.08;70.12;99267.59;107787;1253;59396;-55
2024/04/04 07:14:19;;;;;;;1.30;0.70;;;;;;;9.05;70.52;99266.12;107419;1253;61283;-55
2024/04/04 07:16:47;;;;;;;1.00;0.90;;;;;;;9.09;70.30;99268.59;107345;1253;74458;-54
2024/04/04 07:19:14;;;;;;;0.80;0.80;;;;;;;9.26;68.43;99265.92;107704;1253;70102;-55
2024/04/04 07:21:41;;;;;;;0.60;0.60;;;;;;;9.32;67.79;99271.09;107258;1256;74117;-54
2024/04/04 07:24:11;;;;;;;1.20;0.70;;;;;;;9.35;66.40;99273.40;107814;1253;59825;-54
2024/04/04 07:26:38;;;;;;;0.60;0.50;;;;;;;9.37;66.36;99274.05;107544;1253;61514;-55
2024/04/04 07:29:06;;;;;;;0.80;0.80;;;;;;;9.47;67.90;99276.58;107802;1253;74407;-54
2024/04/04 07:31:34;;;;;;;0.90;0.70;;;;;;;9.63;68.15;99274.81;107869;1253;69331;-54
2024/04/04 07:34:02;;;;;;;;;;;;;;;9.79;66.28;99271.64;107694;1254;73165;-55
2024/04/04 07:36:30;;;;;;;1.50;0.70;;;;;;;9.91;65.25;99272.47;107693;1253;62692;-55
2024/04/04 07:38:57;;;;;;;1.40;0.80;;;;;;;9.98;63.97;99274.45;107328;1252;61440;-55
2024/04/04 07:41:25;;;;;;;1.20;1.00;;;;;;;10.05;64.41;99277.80;107932;1252;75577;-55
2024/04/04 07:43:53;;;;;;;2.90;1.20;;;;;;;10.14;63.30;99283.52;107668;1253;70461;-54
2024/04/04 07:46:20;;;;;;;2.20;1.50;;;;;;;10.19;62.33;99286.07;107544;1257;72366;-55
2024/04/04 07:48:48;;;;;;;1.60;1.40;;;;;;;10.24;62.45;99288.64;107675;1254;61269;-55
2024/04/04 07:51:17;;;;;;;;;;;;;;;10.36;62.60;99289.32;107624;1256;60121;-54
2024/04/04 07:53:45;;;;;;;1.10;0.80;;;;;;;10.48;62.23;99295.23;107914;1253;74295;-55
2024/04/04 07:56:12;;;;;;;2.50;1.50;;;;;;;10.50;59.91;99298.11;107705;1253;70213;-54
2024/04/04 07:58:39;;;;;;;3.10;1.00;;;;;;;10.47;59.52;99299.34;107483;1253;71555;-54
2024/04/04 08:01:07;;;;;;;1.30;1.20;;;;;;;10.46;59.52;99302.90;107747;1253;60265;-54
2024/04/04 08:03:36;;;;;;;1.10;0.80;;;;;;;10.42;58.66;99303.95;107751;1253;61337;-55
2024/04/04 08:06:09;;;;;;;1.00;0.90;;;;;;;10.47;59.96;99305.13;107992;1253;74759;-54
2024/04/04 08:08:36;;;;;;;1.20;0.80;;;;;;;10.57;60.05;99305.00;107783;1251;71956;-55
2024/04/04 08:11:05;;;;;;;0.90;0.90;;;;;;;10.68;59.23;99312.51;107906;1252;72446;-54
2024/04/04 08:13:32;;;;;;;1.10;1.00;;;;;;;10.72;58.45;99310.92;107267;1257;61335;-55
2024/04/04 08:15:59;;;;;;;1.50;0.80;;;;;;;10.78;57.95;99316.08;107229;1254;61932;-54
2024/04/04 08:18:26;;;;;;;3.90;0.80;;;;;;;10.89;57.73;99310.09;106469;1253;74439;-54
2024/04/04 08:20:55;;;;;;;0.90;0.70;;;;;;;10.98;55.94;99305.10;106599;1253;69601;-54
2024/04/04 08:23:23;;;;;;;1.20;0.70;;;;;;;10.88;54.75;99315.58;106633;1252;72582;-56
2024/04/04 08:25:54;;;;;;;1.50;0.60;;;;;;;10.83;55.07;99318.98;106692;1254;61221;-55
2024/04/04 08:28:21;;;;;;;0.60;0.60;;;;;;;10.86;54.35;99322.88;105935;1253;61373;-57
2024/04/04 08:31:02;;;;;;;0.80;0.80;;;;;;;10.82;53.52;99320.09;105761;1253;73148;-54
2024/04/04 08:33:33;;;;;;;4.00;0.80;;;;;;;10.85;53.65;99326.23;105625;1253;69502;-58
2024/04/04 08:36:00;;;;;;;0.80;0.60;;;;;;;10.80;52.87;99334.19;105676;1257;71484;-54
2024/04/04 08:38:27;;;;;;;2.80;0.70;;;;;;;10.67;53.52;99331.15;105680;1252;61266;-55
2024/04/04 08:41:02;;;;;;;1.70;0.50;;;;;;;10.70;53.26;99335.73;105702;1253;61344;-55
2024/04/04 08:43:29;;;;;;;0.70;0.70;;;;;;;10.73;52.95;99336.46;105965;1252;74615;-54
2024/04/04 08:45:56;;;;;;;0.80;0.70;;;;;;;10.66;53.80;99342.90;106315;1252;69789;-54
2024/04/04 08:48:26;;;;;;;1.10;0.80;;;;;;;10.75;53.64;99337.93;106010;1253;73031;-55
2024/04/04 08:50:53;;;;;;;1.20;0.60;;;;;;;11.05;52.64;99334.56;105753;1252;61639;-54
2024/04/04 08:53:25;;;;;;;0.70;0.70;;;;;;;11.16;52.58;99339.80;106096;1252;61370;-55
2024/04/04 08:55:55;;;;;;;1.30;0.80;;;;;;;11.25;53.55;99348.66;106400;1252;74205;-55
2024/04/04 08:58:23;;;;;;;1.50;0.70;;;;;;;11.39;53.71;99350.05;105545;1253;70171;-54
2024/04/04 09:00:50;;;;;;;1.80;0.80;;;;;;;11.45;52.54;99352.39;105799;1253;73245;-55
2024/04/04 09:03:17;;;;;;;1.10;0.90;;;;;;;11.48;53.18;99355.36;106430;1252;61364;-55
2024/04/04 09:05:53;;;;;;;0.80;0.70;;;;;;;11.55;52.89;99356.80;105712;1252;61235;-54
2024/04/04 09:08:20;;;;;;;0.70;0.70;;;;;;;11.54;52.78;99354.00;105312;1254;75188;-54
2024/04/04 09:10:50;;;;;;;1.20;1.10;;;;;;;11.60;51.83;99367.60;105838;1252;70357;-54
2024/04/04 09:13:17;;;;;;;3.20;0.90;;;;;;;11.59;51.73;99364.11;106538;1252;72640;-55
2024/04/04 09:15:44;;;;;;;0.90;0.80;;;;;;;11.71;51.00;99356.87;106073;1252;63106;-55
2024/04/04 09:18:11;;;;;;;0.80;0.80;;;;;;;11.72;51.01;99359.23;106200;1252;61345;-55
2024/04/04 09:20:39;;;;;;;0.90;0.80;;;;;;;11.77;50.74;99364.42;105905;1252;76589;-55
2024/04/04 09:23:09;;;;;;;0.60;0.60;;;;;;;11.85;50.52;99359.64;106296;1252;69686;-55
2024/04/04 09:25:37;;;;;;;0.60;0.60;;;;;;;11.78;50.23;99361.95;105914;1252;72915;-55
2024/04/04 09:28:04;;;;;;;1.30;1.20;;;;;;;11.80;50.98;99361.98;105839;1252;61263;-54
2024/04/04 09:30:32;;;;;;;1.00;1.00;;;;;;;11.80;51.27;99350.95;106168;1251;60736;-54
2024/04/04 09:32:59;;;;;;;0.80;0.80;;;;;;;12.04;51.20;99351.77;105863;1252;74918;-54
2024/04/04 09:35:26;;;;;;;0.50;0.50;;;;;;;12.30;50.20;99352.35;106140;1251;69671;-54
2024/04/04 09:37:53;;;;;;;1.10;0.70;;;;;;;12.34;49.98;99353.34;105955;1252;72262;-55
2024/04/04 09:40:20;;;;;;;3.80;0.80;;;;;;;12.42;50.06;99350.62;106521;1253;61375;-54
2024/04/04 09:42:47;;;;;;;0.80;0.80;;;;;;;12.45;49.03;99359.43;106205;1252;61289;-56
2024/04/04 09:45:14;;;;;;;1.20;0.90;;;;;;;12.40;49.01;99360.95;105845;1252;74857;-55
2024/04/04 09:47:42;;;;;;;1.60;0.90;;;;;;;12.46;49.14;99356.75;106452;1252;68380;-55
2024/04/04 09:50:10;;;;;;;;;;;;;;;12.45;48.82;99363.80;107405;1252;74214;-55
2024/04/04 09:52:38;;;;;;;1.10;1.00;;;;;;;12.46;48.97;99355.33;105976;1253;61368;-55
2024/04/04 09:55:09;;;;;;;0.60;0.60;;;;;;;12.60;49.31;99357.21;105967;1253;61459;-55
2024/04/04 09:57:36;;;;;;;1.20;0.80;;;;;;;12.66;48.87;99347.90;105731;1252;76335;-56
2024/04/04 10:00:19;;;;;;;0.70;0.70;;;;;;;12.77;48.30;99349.58;106137;1252;69440;-55
2024/04/04 10:02:50;;;;;;;0.90;0.80;;;;;;;12.62;48.83;99353.59;105920;1252;73046;-57
2024/04/04 10:05:33;;;;;;;0.70;0.70;;;;;;;12.75;48.87;99354.80;105743;1253;61276;-57
2024/04/04 10:08:11;;;;;;;2.30;0.70;;;;;;;12.90;48.58;99354.48;105617;1253;61343;-55
2024/04/04 10:10:38;;;;;;;0.80;0.80;;;;;;;13.00;48.58;99347.02;105647;1253;75974;-55
2024/04/04 10:13:06;;;;;;;0.70;0.70;;;;;;;13.10;48.91;99352.28;106422;1253;69662;-55
2024/04/04 10:16:03;;;;;;;1.80;0.90;;;;;;;13.17;47.99;99346.73;105563;1256;72522;-55
2024/04/04 10:18:33;;;;;;;0.70;0.70;;;;;;;13.25;47.95;99358.23;104834;1254;61501;-55
2024/04/04 10:21:00;;;;;;;0.60;0.60;;;;;;;13.36;47.50;99358.36;104856;1256;61350;-55
2024/04/04 10:23:27;;;;;;;0.60;0.60;;;;;;;13.41;47.28;99358.38;105756;1251;74125;-56
2024/04/04 10:26:07;;;;;;;0.90;0.80;;;;;;;13.44;47.19;99357.36;104674;1253;69660;-55
2024/04/04 10:28:35;;;;;;;1.80;1.20;;;;;;;13.43;46.62;99363.04;105174;1253;72473;-56
2024/04/04 10:31:02;;;;;;;1.70;0.90;;;;;;;13.35;46.87;99369.66;104471;1268;61692;-55
2024/04/04 10:33:29;;;;;;;1.10;0.80;;;;;;;13.29;47.05;99369.85;104889;1253;61245;-56
2024/04/04 10:35:56;;;;;;;1.50;0.90;;;;;;;13.20;46.91;99365.77;104824;1257;74644;-56
2024/04/04 10:38:23;;;;;;;1.20;0.90;;;;;;;13.17;47.57;99368.20;105554;1252;69499;-56
2024/04/04 10:40:50;;;;;;;0.80;0.80;;;;;;;13.25;47.39;99368.66;106105;1253;72613;-56
2024/04/04 10:43:17;;;;;;;0.80;0.80;;;;;;;13.37;48.22;99379.75;105464;1253;61279;-56
2024/04/04 10:45:44;;;;;;;0.80;0.80;;;;;;;13.46;47.24;99371.50;105105;1255;61120;-56
2024/04/04 10:48:11;;;;;;;1.40;1.00;;;;;;;13.51;46.66;99372.62;104888;1252;74655;-56
2024/04/04 10:50:38;;;;;;;0.80;0.80;;;;;;;13.54;46.88;99368.52;104916;1253;69996;-56
2024/04/04 10:53:05;;;;;;;0.70;0.70;;;;;;;13.57;46.19;99363.42;104516;1253;71737;-55
2024/04/04 10:55:33;;;;;;;0.90;0.80;;;;;;;13.52;46.13;99363.75;104805;1258;61352;-56
2024/04/04 10:58:00;;;;;;;2.40;0.70;;;;;;;13.47;46.51;99369.53;104992;1253;61381;-56
2024/04/04 11:00:31;;;;;;;0.80;0.70;;;;;;;13.75;46.51;99373.81;105263;1255;74374;-55
2024/04/04 11:03:00;;;;;;;1.00;0.90;;;;;;;13.86;45.75;99376.51;104735;1258;69560;-56
2024/04/04 11:05:28;;;;;;;1.10;0.90;;;;;;;13.92;45.47;99376.48;104726;1254;72652;-55
2024/04/04 11:07:59;;;;;;;;;;;;;;;14.00;45.51;99373.52;104634;1256;61360;-55
2024/04/04 11:10:27;;;;;;;1.30;0.90;;;;;;;14.01;45.32;99374.00;105017;1253;61363;-56
2024/04/04 11:12:55;;;;;;;0.80;0.80;;;;;;;13.96;45.21;99372.02;104637;1257;74425;-57
2024/04/04 11:15:22;;;;;;;1.10;0.80;;;;;;;13.87;45.33;99378.20;104700;1257;69770;-55
2024/04/04 11:17:50;;;;;;;0.90;0.80;;;;;;;13.89;44.99;99385.64;104579;1252;72970;-55
2024/04/04 11:20:16;;;;;;;4.40;1.30;;;;;;;13.89;45.00;99389.89;104822;1257;61334;-56
2024/04/04 11:22:43;;;;;;;0.60;0.60;;;;;;;13.89;45.24;99386.92;104884;1253;61366;-54
2024/04/04 11:25:11;;;;;;;0.80;0.70;;;;;;;13.88;45.25;99383.80;105091;1253;74489;-54
2024/04/04 11:27:39;;;;;;;1.30;0.90;;;;;;;13.85;44.91;99381.65;104536;1253;69550;-55
2024/04/04 11:30:07;;;;;;;0.80;0.70;;;;;;;14.02;44.60;99376.44;104370;1272;71339;-55
2024/04/04 11:32:35;;;;;;;1.70;0.80;;;;;;;14.05;44.89;99373.92;104995;1253;61352;-55